This is the latest recevied weather packets stored in our database for station/object KM4NDN. If no packets are shown the sender has not sent any weather packets the latest 10 day(s).
| Time | Temp. | Humidity | Pressure | Rain* | Wind** | Luminosity | Snow |
|---|---|---|---|---|---|---|---|
| 1778184488 | 14.44° C | 35% | 1010.5 hPa | 0 mm | - | 642 W/m² | - |
| 1778184183 | 13.89° C | 39% | 1010.4 hPa | 0 mm | - | 732 W/m² | - |
| 1778183880 | 13.89° C | 37% | 1010.6 hPa | 0 mm | - | 646 W/m² | - |
| 1778183577 | 13.89° C | 38% | 1010.5 hPa | 0 mm | - | 436 W/m² | - |
| 1778183275 | 13.89° C | 38% | 1010.3 hPa | 0 mm | - | 721 W/m² | - |
| 1778182970 | 13.89° C | 40% | 1010.5 hPa | 0 mm | - | 726 W/m² | - |
| 1778182667 | 14.44° C | 38% | 1010.6 hPa | 0 mm | - | 775 W/m² | - |
| 1778182364 | 13.33° C | 40% | 1010.7 hPa | 0 mm | - | 735 W/m² | - |
| 1778182060 | 13.89° C | 37% | 1010.7 hPa | 0 mm | - | 760 W/m² | - |
| 1778181757 | 13.89° C | 37% | 1010.7 hPa | 0 mm | - | 795 W/m² | - |
| 1778181453 | 12.78° C | 42% | 1010.9 hPa | 0 mm | - | 796 W/m² | - |
| 1778181150 | 12.78° C | 39% | 1010.7 hPa | 0 mm | - | 220 W/m² | - |
| 1778180847 | 12.78° C | 41% | 1010.6 hPa | 0 mm | - | 276 W/m² | - |
| 1778180545 | 13.33° C | 39% | 1010.8 hPa | 0 mm | - | 187 W/m² | - |
| 1778180244 | 12.78° C | 41% | 1010.8 hPa | 0 mm | - | 307 W/m² | - |
| 1778179940 | 13.33° C | 38% | 1011 hPa | 0 mm | - | 363 W/m² | - |
| 1778179638 | 13.33° C | 42% | 1010.8 hPa | 0 mm | - | 378 W/m² | - |
| 1778179335 | 12.22° C | 43% | 1011 hPa | 0 mm | - | 942 W/m² | - |
| 1778179032 | 12.22° C | 44% | 1011 hPa | 0 mm | - | 228 W/m² | - |
| 1778178728 | 13.33° C | 45% | 1011 hPa | 0 mm | - | 205 W/m² | - |
| 1778178426 | 13.33° C | 43% | 1011 hPa | 0 mm | - | 248 W/m² | - |
| 1778178121 | 13.33° C | 43% | 1011.2 hPa | 0 mm | - | 927 W/m² | - |
| 1778177818 | 13.33° C | 45% | 1010.8 hPa | 0 mm | - | 255 W/m² | - |
| 1778177514 | 13.33° C | 46% | 1010.7 hPa | 0 mm | - | 960 W/m² | - |
| 1778177211 | 13.33° C | 44% | 1010.9 hPa | 0 mm | - | 266 W/m² | - |
* Rain latest hour (hover to see other rain measurements)
** Current wind speed in m/s (hover to see current wind gust speed)